The B&b — 6YRR2 — position and weather

sailwx.info

Track history (hours):
 
Tides and Currents Weather Stations Pressure Air Temp Water Temp Dewpoint Dewpoint Depression Visibility Wind Speed Wind Dir Waves Ship Positions

The B&b

Last reported at 2017-Nov-25 02:00 UTC. Time now 2017-Nov-25 02:16 UTC.
Position N 25°44' W 080°10'.

Length 39 m; draft 2 m.

Type: Pleasure craft. MMSI: 339316000.

Date/timePositionNaut miles runAvg speedWind from/ knotsBaromVisibWave heightAir tempDewpointWater temp
2017-Nov-25 02:00N 25°44' W 080°10'0 0.0
2017-Nov-25 01:30N 25°44' W 080°10'0 0.0
2017-Nov-25 01:00N 25°44' W 080°10'0 0.0
2017-Nov-25 00:30N 25°44' W 080°10'0 0.0
2017-Nov-25 00:00N 25°44' W 080°10'0 0.0
2017-Nov-24 23:30N 25°44' W 080°10'0 0.0
2017-Nov-24 23:00N 25°44' W 080°11'4 7.3
2017-Nov-24 22:30N 25°41' W 080°12'1 2.9
2017-Nov-24 22:00N 25°42' W 080°11'2 4.0
2017-Nov-24 21:30N 25°44' W 080°10'0 0.0
2017-Nov-24 21:01N 25°44' W 080°10'3 5.7
2017-Nov-24 20:30N 25°42' W 080°12'1120.8
2017-Nov-24 19:59N 25°31' W 080°14'8 0.2
2017-Nov-22 21:04N 25°23' W 080°16'9 8.7
2017-Nov-22 20:04N 25°32' W 080°14'120.6
2017-Nov-22 20:00N 25°33' W 080°14'1020.7
2017-Nov-22 19:30N 25°43' W 080°11'  
2017-Nov-20 00:25N 25°45' W 080°11'0 0.0
2017-Nov-19 23:58N 25°45' W 080°11'0 0.0
2017-Nov-19 23:28N 25°45' W 080°11'0 0.0
2017-Nov-19 22:58N 25°45' W 080°11'0 0.0
2017-Nov-19 22:28N 25°45' W 080°11'0 0.0
2017-Nov-19 21:52N 25°45' W 080°11'0 0.0
2017-Nov-19 21:28N 25°45' W 080°11'0 0.0
2017-Nov-19 20:55N 25°45' W 080°11'0 0.0
2017-Nov-19 20:25N 25°45' W 080°11'0 0.0
2017-Nov-19 19:58N 25°45' W 080°11'0 0.0
2017-Nov-19 19:31N 25°45' W 080°11'2 4.9
2017-Nov-19 19:00N 25°42' W 080°11'2 4.0
2017-Nov-19 18:30N 25°41' W 080°10'2 4.7
2017-Nov-19 18:00N 25°39' W 080°08'815.9
2017-Nov-19 17:30N 25°47' W 080°06'918.9
2017-Nov-19 17:00N 25°56' W 080°05'816.9
2017-Nov-19 16:30N 26°04' W 080°05'3 6.2
2017-Nov-19 16:00N 26°07' W 080°07'2 3.9
2017-Nov-19 15:30N 26°07' W 080°09'1 1.9
2017-Nov-19 14:52N 26°06' W 080°10'0 0.0
2017-Nov-19 14:25N 26°06' W 080°10'0 0.0
2017-Nov-19 13:55N 26°06' W 080°10'0 0.0
2017-Nov-19 13:25N 26°06' W 080°10'0 0.0
2017-Nov-19 13:01N 26°06' W 080°10'0 0.0
2017-Nov-19 12:31N 26°06' W 080°10'0 0.0
2017-Nov-19 11:58N 26°06' W 080°10'0 0.0
2017-Nov-19 11:28N 26°06' W 080°10'0 0.0
2017-Nov-19 10:55N 26°06' W 080°10'0 0.0
2017-Nov-19 10:28N 26°06' W 080°10'0 0.0
2017-Nov-19 09:55N 26°06' W 080°10'0 0.0
2017-Nov-19 09:28N 26°06' W 080°10'0 0.0
2017-Nov-19 09:01N 26°06' W 080°10'0 0.0
2017-Nov-19 08:31N 26°06' W 080°10'0 0.0
2017-Nov-19 08:01N 26°06' W 080°10'0 0.0
2017-Nov-19 07:28N 26°06' W 080°10'0 0.0
2017-Nov-19 07:01N 26°06' W 080°10'0 0.0
2017-Nov-19 06:31N 26°06' W 080°10'0 0.0
2017-Nov-19 06:01N 26°06' W 080°10'0 0.0
2017-Nov-19 05:31N 26°06' W 080°10'0 0.0
2017-Nov-19 05:01N 26°06' W 080°10'0 0.0
2017-Nov-19 04:31N 26°06' W 080°10'0 0.0
2017-Nov-19 04:01N 26°06' W 080°10'0 0.0
2017-Nov-19 03:31N 26°06' W 080°10'0 0.0
2017-Nov-19 03:01N 26°06' W 080°10'0 0.0
2017-Nov-19 02:31N 26°06' W 080°10'0 0.0
2017-Nov-19 01:52N 26°06' W 080°10'0 0.0
2017-Nov-19 01:22N 26°06' W 080°10'0 0.0
2017-Nov-19 00:52N 26°06' W 080°10'0 0.0
2017-Nov-19 00:25N 26°06' W 080°10'0 0.0
2017-Nov-18 23:55N 26°06' W 080°10'0 0.0
2017-Nov-18 23:25N 26°06' W 080°10'0 0.0
2017-Nov-18 22:55N 26°06' W 080°10'0 0.0
2017-Nov-18 22:25N 26°06' W 080°10'0 0.0
2017-Nov-18 21:55N 26°06' W 080°10'0 0.0
2017-Nov-18 21:28N 26°06' W 080°10'0 0.0
2017-Nov-18 20:58N 26°06' W 080°10'0 0.0
2017-Nov-18 20:28N 26°06' W 080°10'0 0.0
2017-Nov-18 19:58N 26°06' W 080°10'0 0.0
2017-Nov-18 19:28N 26°06' W 080°10'0 0.0
2017-Nov-18 19:01N 26°06' W 080°10'0 0.0
2017-Nov-18 18:30N 26°06' W 080°10'0 0.0
2017-Nov-18 18:00N 26°06' W 080°10'0 0.0
2017-Nov-18 17:27N 26°06' W 080°10'0 0.0
2017-Nov-18 17:00N 26°06' W 080°10'0 0.0
2017-Nov-18 16:27N 26°06' W 080°10'0 0.0
2017-Nov-18 16:00N 26°06' W 080°10'0 0.0
2017-Nov-18 15:30N 26°06' W 080°10'0 0.0
2017-Nov-18 14:57N 26°06' W 080°10'0 0.0
2017-Nov-18 14:18N 26°06' W 080°10'0 0.0
2017-Nov-18 14:00N 26°06' W 080°10'0 0.0
2017-Nov-18 13:15N 26°06' W 080°10'0 0.0
2017-Nov-18 13:00N 26°06' W 080°10'0 0.0
2017-Nov-18 12:21N 26°06' W 080°10'0 0.0
2017-Nov-18 11:48N 26°06' W 080°10'0 0.0
2017-Nov-18 11:21N 26°06' W 080°10'0 0.0
2017-Nov-18 10:51N 26°06' W 080°10'0 0.0
2017-Nov-18 10:24N 26°06' W 080°10'0 0.0
2017-Nov-18 09:54N 26°06' W 080°10'0 0.0
2017-Nov-18 09:24N 26°06' W 080°10'0 0.0
2017-Nov-18 08:54N 26°06' W 080°10'0 0.0
2017-Nov-18 08:24N 26°06' W 080°10'0 0.0
2017-Nov-18 07:54N 26°06' W 080°10'0 0.0
2017-Nov-18 07:27N 26°06' W 080°10'0 0.0
2017-Nov-18 06:57N 26°06' W 080°10'0 0.0
2017-Nov-18 06:27N 26°06' W 080°10'0 0.0
2017-Nov-18 05:57N 26°06' W 080°10'0 0.0
2017-Nov-18 05:27N 26°06' W 080°10'0 0.0
2017-Nov-18 04:57N 26°06' W 080°10'0 0.0
2017-Nov-18 04:30N 26°06' W 080°10'0 0.0
2017-Nov-18 04:00N 26°06' W 080°10'0 0.0
2017-Nov-18 03:30N 26°06' W 080°10'0 0.0
2017-Nov-18 03:00N 26°06' W 080°10'0 0.0
2017-Nov-18 02:30N 26°06' W 080°10'0 0.0
2017-Nov-18 02:00N 26°06' W 080°10'0 0.0
2017-Nov-18 01:30N 26°06' W 080°10'0 0.0
2017-Nov-18 01:00N 26°06' W 080°10'0 0.0
2017-Nov-18 00:30N 26°06' W 080°10'0 0.0
2017-Nov-18 00:00N 26°06' W 080°10'0 0.0
2017-Nov-17 23:18N 26°06' W 080°10'0 0.0
2017-Nov-17 23:00N 26°06' W 080°10'0 0.0
2017-Nov-17 22:30N 26°06' W 080°10'0 0.0
2017-Nov-17 22:00N 26°06' W 080°10'0 0.0
2017-Nov-17 21:21N 26°06' W 080°10'0 0.0
2017-Nov-17 20:48N 26°06' W 080°10'0 0.0
2017-Nov-17 20:18N 26°06' W 080°10'0 0.0
2017-Nov-17 19:54N 26°06' W 080°10'0 0.0
2017-Nov-17 19:24N 26°06' W 080°10'0 0.0
2017-Nov-17 18:51N 26°06' W 080°10'0 0.0
2017-Nov-17 18:24N 26°06' W 080°10'0 0.0
2017-Nov-17 17:54N 26°06' W 080°10'0 0.0
2017-Nov-17 17:24N 26°06' W 080°10'0 0.0
2017-Nov-17 16:57N 26°06' W 080°10'0 0.0
2017-Nov-17 16:27N 26°06' W 080°10'0 0.0
2017-Nov-17 15:57N 26°06' W 080°10'0 0.0
2017-Nov-17 15:27N 26°06' W 080°10'0 0.0
2017-Nov-17 14:57N 26°06' W 080°10'0 0.0
2017-Nov-17 14:30N 26°06' W 080°10'0 0.0
2017-Nov-17 14:00N 26°06' W 080°10'0 0.0
2017-Nov-17 13:30N 26°06' W 080°10'0 0.0
2017-Nov-17 13:00N 26°06' W 080°10'0 0.0
2017-Nov-17 12:30N 26°06' W 080°10'0 0.0
2017-Nov-17 12:00N 26°06' W 080°10'0 0.0
2017-Nov-17 11:30N 26°06' W 080°10'0 0.0
2017-Nov-17 11:00N 26°06' W 080°10'0 0.0
2017-Nov-17 10:30N 26°06' W 080°10'0 0.0
2017-Nov-17 10:00N 26°06' W 080°10'0 0.0
2017-Nov-17 09:30N 26°06' W 080°10'0 0.0
2017-Nov-17 09:00N 26°06' W 080°10'0 0.0
2017-Nov-17 08:30N 26°06' W 080°10'0 0.0
2017-Nov-17 08:00N 26°06' W 080°10'0 0.0
2017-Nov-17 07:21N 26°06' W 080°10'0 0.0
2017-Nov-17 06:51N 26°06' W 080°10'0 0.0
2017-Nov-17 06:21N 26°06' W 080°10'0 0.0
2017-Nov-17 05:54N 26°06' W 080°10'0 0.0
2017-Nov-17 05:24N 26°06' W 080°10'0 0.0
2017-Nov-17 04:54N 26°06' W 080°10'0 0.0
2017-Nov-17 04:21N 26°06' W 080°10'0 0.0
2017-Nov-17 03:54N 26°06' W 080°10'0 0.0
2017-Nov-17 03:24N 26°06' W 080°10'0 0.0
2017-Nov-17 02:57N 26°06' W 080°10'0 0.0
2017-Nov-17 02:27N 26°06' W 080°10'0 0.0
2017-Nov-17 01:57N 26°06' W 080°10'0 0.0
2017-Nov-17 01:27N 26°06' W 080°10'0 0.0
2017-Nov-17 00:57N 26°06' W 080°10'0 0.0
2017-Nov-17 00:27N 26°06' W 080°10'0 0.0
2017-Nov-16 23:57N 26°06' W 080°10'0 0.0
2017-Nov-16 23:30N 26°06' W 080°10'0 0.0
2017-Nov-16 23:00N 26°06' W 080°10'0 0.0
2017-Nov-16 22:30N 26°06' W 080°10'0 0.0
2017-Nov-16 22:00N 26°06' W 080°10'0 0.0
2017-Nov-16 21:27N 26°06' W 080°10'0 0.0
2017-Nov-16 21:00N 26°06' W 080°10'0 0.0
2017-Nov-16 20:30N 26°06' W 080°10'0 0.0
2017-Nov-16 19:57N 26°06' W 080°10'0 0.0
2017-Nov-16 19:30N 26°06' W 080°10'0 0.0
2017-Nov-16 19:00N 26°06' W 080°10'0 0.0
2017-Nov-16 18:30N 26°06' W 080°10'0 0.0
2017-Nov-16 18:00N 26°06' W 080°10'0 0.0
2017-Nov-16 17:30N 26°06' W 080°10'0 0.0
2017-Nov-16 16:48N 26°06' W 080°10'0 0.0
2017-Nov-16 16:21N 26°06' W 080°10'0 0.0
2017-Nov-16 15:51N 26°06' W 080°10'0 0.0
2017-Nov-16 15:24N 26°06' W 080°10'0 0.0
2017-Nov-16 14:54N 26°06' W 080°10'0 0.0
2017-Nov-16 14:24N 26°06' W 080°10'0 0.0
2017-Nov-16 13:54N 26°06' W 080°10'0 0.0
2017-Nov-16 13:24N 26°06' W 080°10'0 0.0
2017-Nov-16 12:54N 26°06' W 080°10'0 0.0
2017-Nov-16 12:27N 26°06' W 080°10'0 0.0
2017-Nov-16 11:57N 26°06' W 080°10'0 0.0
2017-Nov-16 11:27N 26°06' W 080°10'0 0.0
2017-Nov-16 10:57N 26°06' W 080°10'0 0.0
2017-Nov-16 10:27N 26°06' W 080°10'0 0.0
2017-Nov-16 10:00N 26°06' W 080°10'0 0.0
2017-Nov-16 09:30N 26°06' W 080°10'0 0.0
2017-Nov-16 09:00N 26°06' W 080°10'0 0.0
2017-Nov-16 08:30N 26°06' W 080°10'0 0.0
2017-Nov-16 07:57N 26°06' W 080°10'0 0.0
2017-Nov-16 07:30N 26°06' W 080°10'0 0.0
2017-Nov-16 07:00N 26°06' W 080°10'0 0.0
2017-Nov-16 06:30N 26°06' W 080°10'0 0.0
2017-Nov-16 06:00N 26°06' W 080°10'0 0.0
2017-Nov-16 05:30N 26°06' W 080°10'0 0.0
2017-Nov-16 04:45N 26°06' W 080°10'0 0.0
2017-Nov-16 04:30N 26°06' W 080°10'0 0.0
2017-Nov-16 04:00N 26°06' W 080°10'0 0.0
2017-Nov-16 03:30N 26°06' W 080°10'0 0.0
2017-Nov-16 03:00N 26°06' W 080°10'0 0.0
2017-Nov-16 02:21N 26°06' W 080°10'0 0.0
2017-Nov-16 01:51N 26°06' W 080°10'0 0.0
2017-Nov-16 01:24N 26°06' W 080°10'0 0.0
2017-Nov-16 00:54N 26°06' W 080°10'0 0.0
2017-Nov-16 00:24N 26°06' W 080°10'0 0.0
2017-Nov-15 23:54N 26°06' W 080°10'0 0.0
2017-Nov-15 23:24N 26°06' W 080°10'0 0.0
2017-Nov-15 22:54N 26°06' W 080°10'0 0.0
2017-Nov-15 22:27N 26°06' W 080°10'0 0.0
2017-Nov-15 21:54N 26°06' W 080°10'0 0.0
2017-Nov-15 21:21N 26°06' W 080°10'0 0.0
2017-Nov-15 20:57N 26°06' W 080°10'0 0.0
2017-Nov-15 20:27N 26°06' W 080°10'0 0.0
2017-Nov-15 19:57N 26°06' W 080°10'0 0.0
2017-Nov-15 19:30N 26°06' W 080°10'0 0.0
2017-Nov-15 19:00N 26°06' W 080°10'0 0.0
2017-Nov-15 18:30N 26°06' W 080°10'0 0.0
2017-Nov-15 18:00N 26°06' W 080°10'0 0.0
2017-Nov-15 17:30N 26°06' W 080°10'0 0.0
2017-Nov-15 17:00N 26°06' W 080°10'0 0.0
2017-Nov-15 16:30N 26°06' W 080°10'0 0.0
2017-Nov-15 16:00N 26°06' W 080°10'0 0.0
2017-Nov-15 15:30N 26°06' W 080°10'0 0.0
2017-Nov-15 15:00N 26°06' W 080°10'0 0.0
2017-Nov-15 14:30N 26°06' W 080°10'0 0.0
2017-Nov-15 14:00N 26°06' W 080°10'0 0.0
2017-Nov-15 13:21N 26°06' W 080°10'0 0.0
2017-Nov-15 13:00N 26°06' W 080°10'0 0.0
2017-Nov-15 12:21N 26°06' W 080°10'0 0.0
2017-Nov-15 11:51N 26°06' W 080°10'0 0.0
2017-Nov-15 11:21N 26°06' W 080°10'0 0.0
2017-Nov-15 10:54N 26°06' W 080°10'0 0.0
2017-Nov-15 10:24N 26°06' W 080°10'0 0.0
2017-Nov-15 09:54N 26°06' W 080°10'0 0.0
2017-Nov-15 09:09N 26°06' W 080°10'0 0.0
2017-Nov-15 08:54N 26°06' W 080°10'0 0.0
2017-Nov-15 08:27N 26°06' W 080°10'0 0.0
2017-Nov-15 07:57N 26°06' W 080°10'0 0.0
2017-Nov-15 07:27N 26°06' W 080°10'0 0.0
2017-Nov-15 06:57N 26°06' W 080°10'0 0.0
2017-Nov-15 06:27N 26°06' W 080°10'0 0.0
2017-Nov-15 05:57N 26°06' W 080°10'0 0.0
2017-Nov-15 05:30N 26°06' W 080°10'0 0.0
2017-Nov-15 05:00N 26°06' W 080°10'0 0.0
2017-Nov-15 04:27N 26°06' W 080°10'0 0.0
2017-Nov-15 03:57N 26°06' W 080°10'0 0.0
2017-Nov-15 03:30N 26°06' W 080°10'0 0.0
2017-Nov-15 03:00N 26°06' W 080°10'0 0.0
2017-Nov-15 02:30N 26°06' W 080°10'0 0.0
2017-Nov-15 02:00N 26°06' W 080°10'  
Track history (hours):
 
Tides and Currents Weather Stations Pressure Air Temp Water Temp Dewpoint Dewpoint Depression Visibility Wind Speed Wind Dir Waves Ship Positions

The B&b

Last reported at 2017-Nov-25 02:00 UTC. Time now 2017-Nov-25 02:16 UTC.
Position N 25°44' W 080°10'.

Length 39 m; draft 2 m.

Type: Pleasure craft. MMSI: 339316000.

Date/timePositionNaut miles runAvg speedWind from/ knotsBaromVisibWave heightAir tempDewpointWater temp
2017-Nov-25 02:00N 25°44' W 080°10'0 0.0
2017-Nov-25 01:30N 25°44' W 080°10'0 0.0
2017-Nov-25 01:00N 25°44' W 080°10'0 0.0
2017-Nov-25 00:30N 25°44' W 080°10'0 0.0
2017-Nov-25 00:00N 25°44' W 080°10'0 0.0
2017-Nov-24 23:30N 25°44' W 080°10'0 0.0
2017-Nov-24 23:00N 25°44' W 080°11'4 7.3
2017-Nov-24 22:30N 25°41' W 080°12'1 2.9
2017-Nov-24 22:00N 25°42' W 080°11'2 4.0
2017-Nov-24 21:30N 25°44' W 080°10'0 0.0
2017-Nov-24 21:01N 25°44' W 080°10'3 5.7
2017-Nov-24 20:30N 25°42' W 080°12'1120.8
2017-Nov-24 19:59N 25°31' W 080°14'8 0.2
2017-Nov-22 21:04N 25°23' W 080°16'9 8.7
2017-Nov-22 20:04N 25°32' W 080°14'120.6
2017-Nov-22 20:00N 25°33' W 080°14'1020.7
2017-Nov-22 19:30N 25°43' W 080°11'  
2017-Nov-20 00:25N 25°45' W 080°11'0 0.0
2017-Nov-19 23:58N 25°45' W 080°11'0 0.0
2017-Nov-19 23:28N 25°45' W 080°11'0 0.0
2017-Nov-19 22:58N 25°45' W 080°11'0 0.0
2017-Nov-19 22:28N 25°45' W 080°11'0 0.0
2017-Nov-19 21:52N 25°45' W 080°11'0 0.0
2017-Nov-19 21:28N 25°45' W 080°11'0 0.0
2017-Nov-19 20:55N 25°45' W 080°11'0 0.0
2017-Nov-19 20:25N 25°45' W 080°11'0 0.0
2017-Nov-19 19:58N 25°45' W 080°11'0 0.0
2017-Nov-19 19:31N 25°45' W 080°11'2 4.9
2017-Nov-19 19:00N 25°42' W 080°11'2 4.0
2017-Nov-19 18:30N 25°41' W 080°10'2 4.7
2017-Nov-19 18:00N 25°39' W 080°08'815.9
2017-Nov-19 17:30N 25°47' W 080°06'918.9
2017-Nov-19 17:00N 25°56' W 080°05'816.9
2017-Nov-19 16:30N 26°04' W 080°05'3 6.2
2017-Nov-19 16:00N 26°07' W 080°07'2 3.9
2017-Nov-19 15:30N 26°07' W 080°09'1 1.9
2017-Nov-19 14:52N 26°06' W 080°10'0 0.0
2017-Nov-19 14:25N 26°06' W 080°10'0 0.0
2017-Nov-19 13:55N 26°06' W 080°10'0 0.0
2017-Nov-19 13:25N 26°06' W 080°10'0 0.0
2017-Nov-19 13:01N 26°06' W 080°10'0 0.0
2017-Nov-19 12:31N 26°06' W 080°10'0 0.0
2017-Nov-19 11:58N 26°06' W 080°10'0 0.0
2017-Nov-19 11:28N 26°06' W 080°10'0 0.0
2017-Nov-19 10:55N 26°06' W 080°10'0 0.0
2017-Nov-19 10:28N 26°06' W 080°10'0 0.0
2017-Nov-19 09:55N 26°06' W 080°10'0 0.0
2017-Nov-19 09:28N 26°06' W 080°10'0 0.0
2017-Nov-19 09:01N 26°06' W 080°10'0 0.0
2017-Nov-19 08:31N 26°06' W 080°10'0 0.0
2017-Nov-19 08:01N 26°06' W 080°10'0 0.0
2017-Nov-19 07:28N 26°06' W 080°10'0 0.0
2017-Nov-19 07:01N 26°06' W 080°10'0 0.0
2017-Nov-19 06:31N 26°06' W 080°10'0 0.0
2017-Nov-19 06:01N 26°06' W 080°10'0 0.0
2017-Nov-19 05:31N 26°06' W 080°10'0 0.0
2017-Nov-19 05:01N 26°06' W 080°10'0 0.0
2017-Nov-19 04:31N 26°06' W 080°10'0 0.0
2017-Nov-19 04:01N 26°06' W 080°10'0 0.0
2017-Nov-19 03:31N 26°06' W 080°10'0 0.0
2017-Nov-19 03:01N 26°06' W 080°10'0 0.0
2017-Nov-19 02:31N 26°06' W 080°10'0 0.0
2017-Nov-19 01:52N 26°06' W 080°10'0 0.0
2017-Nov-19 01:22N 26°06' W 080°10'0 0.0
2017-Nov-19 00:52N 26°06' W 080°10'0 0.0
2017-Nov-19 00:25N 26°06' W 080°10'0 0.0
2017-Nov-18 23:55N 26°06' W 080°10'0 0.0
2017-Nov-18 23:25N 26°06' W 080°10'0 0.0
2017-Nov-18 22:55N 26°06' W 080°10'0 0.0
2017-Nov-18 22:25N 26°06' W 080°10'0 0.0
2017-Nov-18 21:55N 26°06' W 080°10'0 0.0
2017-Nov-18 21:28N 26°06' W 080°10'0 0.0
2017-Nov-18 20:58N 26°06' W 080°10'0 0.0
2017-Nov-18 20:28N 26°06' W 080°10'0 0.0
2017-Nov-18 19:58N 26°06' W 080°10'0 0.0
2017-Nov-18 19:28N 26°06' W 080°10'0 0.0
2017-Nov-18 19:01N 26°06' W 080°10'0 0.0
2017-Nov-18 18:30N 26°06' W 080°10'0 0.0
2017-Nov-18 18:00N 26°06' W 080°10'0 0.0
2017-Nov-18 17:27N 26°06' W 080°10'0 0.0
2017-Nov-18 17:00N 26°06' W 080°10'0 0.0
2017-Nov-18 16:27N 26°06' W 080°10'0 0.0
2017-Nov-18 16:00N 26°06' W 080°10'0 0.0
2017-Nov-18 15:30N 26°06' W 080°10'0 0.0
2017-Nov-18 14:57N 26°06' W 080°10'0 0.0
2017-Nov-18 14:18N 26°06' W 080°10'0 0.0
2017-Nov-18 14:00N 26°06' W 080°10'0 0.0
2017-Nov-18 13:15N 26°06' W 080°10'0 0.0
2017-Nov-18 13:00N 26°06' W 080°10'0 0.0
2017-Nov-18 12:21N 26°06' W 080°10'0 0.0
2017-Nov-18 11:48N 26°06' W 080°10'0 0.0
2017-Nov-18 11:21N 26°06' W 080°10'0 0.0
2017-Nov-18 10:51N 26°06' W 080°10'0 0.0
2017-Nov-18 10:24N 26°06' W 080°10'0 0.0
2017-Nov-18 09:54N 26°06' W 080°10'0 0.0
2017-Nov-18 09:24N 26°06' W 080°10'0 0.0
2017-Nov-18 08:54N 26°06' W 080°10'0 0.0
2017-Nov-18 08:24N 26°06' W 080°10'0 0.0
2017-Nov-18 07:54N 26°06' W 080°10'0 0.0
2017-Nov-18 07:27N 26°06' W 080°10'0 0.0
2017-Nov-18 06:57N 26°06' W 080°10'0 0.0
2017-Nov-18 06:27N 26°06' W 080°10'0 0.0
2017-Nov-18 05:57N 26°06' W 080°10'0 0.0
2017-Nov-18 05:27N 26°06' W 080°10'0 0.0
2017-Nov-18 04:57N 26°06' W 080°10'0 0.0
2017-Nov-18 04:30N 26°06' W 080°10'0 0.0
2017-Nov-18 04:00N 26°06' W 080°10'0 0.0
2017-Nov-18 03:30N 26°06' W 080°10'0 0.0
2017-Nov-18 03:00N 26°06' W 080°10'0 0.0
2017-Nov-18 02:30N 26°06' W 080°10'0 0.0
2017-Nov-18 02:00N 26°06' W 080°10'0 0.0
2017-Nov-18 01:30N 26°06' W 080°10'0 0.0
2017-Nov-18 01:00N 26°06' W 080°10'0 0.0
2017-Nov-18 00:30N 26°06' W 080°10'0 0.0
2017-Nov-18 00:00N 26°06' W 080°10'0 0.0
2017-Nov-17 23:18N 26°06' W 080°10'0 0.0
2017-Nov-17 23:00N 26°06' W 080°10'0 0.0
2017-Nov-17 22:30N 26°06' W 080°10'0 0.0
2017-Nov-17 22:00N 26°06' W 080°10'0 0.0
2017-Nov-17 21:21N 26°06' W 080°10'0 0.0
2017-Nov-17 20:48N 26°06' W 080°10'0 0.0
2017-Nov-17 20:18N 26°06' W 080°10'0 0.0
2017-Nov-17 19:54N 26°06' W 080°10'0 0.0
2017-Nov-17 19:24N 26°06' W 080°10'0 0.0
2017-Nov-17 18:51N 26°06' W 080°10'0 0.0
2017-Nov-17 18:24N 26°06' W 080°10'0 0.0
2017-Nov-17 17:54N 26°06' W 080°10'0 0.0
2017-Nov-17 17:24N 26°06' W 080°10'0 0.0
2017-Nov-17 16:57N 26°06' W 080°10'0 0.0
2017-Nov-17 16:27N 26°06' W 080°10'0 0.0
2017-Nov-17 15:57N 26°06' W 080°10'0 0.0
2017-Nov-17 15:27N 26°06' W 080°10'0 0.0
2017-Nov-17 14:57N 26°06' W 080°10'0 0.0
2017-Nov-17 14:30N 26°06' W 080°10'0 0.0
2017-Nov-17 14:00N 26°06' W 080°10'0 0.0
2017-Nov-17 13:30N 26°06' W 080°10'0 0.0
2017-Nov-17 13:00N 26°06' W 080°10'0 0.0
2017-Nov-17 12:30N 26°06' W 080°10'0 0.0
2017-Nov-17 12:00N 26°06' W 080°10'0 0.0
2017-Nov-17 11:30N 26°06' W 080°10'0 0.0
2017-Nov-17 11:00N 26°06' W 080°10'0 0.0
2017-Nov-17 10:30N 26°06' W 080°10'0 0.0
2017-Nov-17 10:00N 26°06' W 080°10'0 0.0
2017-Nov-17 09:30N 26°06' W 080°10'0 0.0
2017-Nov-17 09:00N 26°06' W 080°10'0 0.0
2017-Nov-17 08:30N 26°06' W 080°10'0 0.0
2017-Nov-17 08:00N 26°06' W 080°10'0 0.0
2017-Nov-17 07:21N 26°06' W 080°10'0 0.0
2017-Nov-17 06:51N 26°06' W 080°10'0 0.0
2017-Nov-17 06:21N 26°06' W 080°10'0 0.0
2017-Nov-17 05:54N 26°06' W 080°10'0 0.0
2017-Nov-17 05:24N 26°06' W 080°10'0 0.0
2017-Nov-17 04:54N 26°06' W 080°10'0 0.0
2017-Nov-17 04:21N 26°06' W 080°10'0 0.0
2017-Nov-17 03:54N 26°06' W 080°10'0 0.0
2017-Nov-17 03:24N 26°06' W 080°10'0 0.0
2017-Nov-17 02:57N 26°06' W 080°10'0 0.0
2017-Nov-17 02:27N 26°06' W 080°10'0 0.0
2017-Nov-17 01:57N 26°06' W 080°10'0 0.0
2017-Nov-17 01:27N 26°06' W 080°10'0 0.0
2017-Nov-17 00:57N 26°06' W 080°10'0 0.0
2017-Nov-17 00:27N 26°06' W 080°10'0 0.0
2017-Nov-16 23:57N 26°06' W 080°10'0 0.0
2017-Nov-16 23:30N 26°06' W 080°10'0 0.0
2017-Nov-16 23:00N 26°06' W 080°10'0 0.0
2017-Nov-16 22:30N 26°06' W 080°10'0 0.0
2017-Nov-16 22:00N 26°06' W 080°10'0 0.0
2017-Nov-16 21:27N 26°06' W 080°10'0 0.0
2017-Nov-16 21:00N 26°06' W 080°10'0 0.0
2017-Nov-16 20:30N 26°06' W 080°10'0 0.0
2017-Nov-16 19:57N 26°06' W 080°10'0 0.0
2017-Nov-16 19:30N 26°06' W 080°10'0 0.0
2017-Nov-16 19:00N 26°06' W 080°10'0 0.0
2017-Nov-16 18:30N 26°06' W 080°10'0 0.0
2017-Nov-16 18:00N 26°06' W 080°10'0 0.0
2017-Nov-16 17:30N 26°06' W 080°10'0 0.0
2017-Nov-16 16:48N 26°06' W 080°10'0 0.0
2017-Nov-16 16:21N 26°06' W 080°10'0 0.0
2017-Nov-16 15:51N 26°06' W 080°10'0 0.0
2017-Nov-16 15:24N 26°06' W 080°10'0 0.0
2017-Nov-16 14:54N 26°06' W 080°10'0 0.0
2017-Nov-16 14:24N 26°06' W 080°10'0 0.0
2017-Nov-16 13:54N 26°06' W 080°10'0 0.0
2017-Nov-16 13:24N 26°06' W 080°10'0 0.0
2017-Nov-16 12:54N 26°06' W 080°10'0 0.0
2017-Nov-16 12:27N 26°06' W 080°10'0 0.0
2017-Nov-16 11:57N 26°06' W 080°10'0 0.0
2017-Nov-16 11:27N 26°06' W 080°10'0 0.0
2017-Nov-16 10:57N 26°06' W 080°10'0 0.0
2017-Nov-16 10:27N 26°06' W 080°10'0 0.0
2017-Nov-16 10:00N 26°06' W 080°10'0 0.0
2017-Nov-16 09:30N 26°06' W 080°10'0 0.0
2017-Nov-16 09:00N 26°06' W 080°10'0 0.0
2017-Nov-16 08:30N 26°06' W 080°10'0 0.0
2017-Nov-16 07:57N 26°06' W 080°10'0 0.0
2017-Nov-16 07:30N 26°06' W 080°10'0 0.0
2017-Nov-16 07:00N 26°06' W 080°10'0 0.0
2017-Nov-16 06:30N 26°06' W 080°10'0 0.0
2017-Nov-16 06:00N 26°06' W 080°10'0 0.0
2017-Nov-16 05:30N 26°06' W 080°10'0 0.0
2017-Nov-16 04:45N 26°06' W 080°10'0 0.0
2017-Nov-16 04:30N 26°06' W 080°10'0 0.0
2017-Nov-16 04:00N 26°06' W 080°10'0 0.0
2017-Nov-16 03:30N 26°06' W 080°10'0 0.0
2017-Nov-16 03:00N 26°06' W 080°10'0 0.0
2017-Nov-16 02:21N 26°06' W 080°10'0 0.0
2017-Nov-16 01:51N 26°06' W 080°10'0 0.0
2017-Nov-16 01:24N 26°06' W 080°10'0 0.0
2017-Nov-16 00:54N 26°06' W 080°10'0 0.0
2017-Nov-16 00:24N 26°06' W 080°10'0 0.0
2017-Nov-15 23:54N 26°06' W 080°10'0 0.0
2017-Nov-15 23:24N 26°06' W 080°10'0 0.0
2017-Nov-15 22:54N 26°06' W 080°10'0 0.0
2017-Nov-15 22:27N 26°06' W 080°10'0 0.0
2017-Nov-15 21:54N 26°06' W 080°10'0 0.0
2017-Nov-15 21:21N 26°06' W 080°10'0 0.0
2017-Nov-15 20:57N 26°06' W 080°10'0 0.0
2017-Nov-15 20:27N 26°06' W 080°10'0 0.0
2017-Nov-15 19:57N 26°06' W 080°10'0 0.0
2017-Nov-15 19:30N 26°06' W 080°10'0 0.0
2017-Nov-15 19:00N 26°06' W 080°10'0 0.0
2017-Nov-15 18:30N 26°06' W 080°10'0 0.0
2017-Nov-15 18:00N 26°06' W 080°10'0 0.0
2017-Nov-15 17:30N 26°06' W 080°10'0 0.0
2017-Nov-15 17:00N 26°06' W 080°10'0 0.0
2017-Nov-15 16:30N 26°06' W 080°10'0 0.0
2017-Nov-15 16:00N 26°06' W 080°10'0 0.0
2017-Nov-15 15:30N 26°06' W 080°10'0 0.0
2017-Nov-15 15:00N 26°06' W 080°10'0 0.0
2017-Nov-15 14:30N 26°06' W 080°10'0 0.0
2017-Nov-15 14:00N 26°06' W 080°10'0 0.0
2017-Nov-15 13:21N 26°06' W 080°10'0 0.0
2017-Nov-15 13:00N 26°06' W 080°10'0 0.0
2017-Nov-15 12:21N 26°06' W 080°10'0 0.0
2017-Nov-15 11:51N 26°06' W 080°10'0 0.0
2017-Nov-15 11:21N 26°06' W 080°10'0 0.0
2017-Nov-15 10:54N 26°06' W 080°10'0 0.0
2017-Nov-15 10:24N 26°06' W 080°10'0 0.0
2017-Nov-15 09:54N 26°06' W 080°10'0 0.0
2017-Nov-15 09:09N 26°06' W 080°10'0 0.0
2017-Nov-15 08:54N 26°06' W 080°10'0 0.0
2017-Nov-15 08:27N 26°06' W 080°10'0 0.0
2017-Nov-15 07:57N 26°06' W 080°10'0 0.0
2017-Nov-15 07:27N 26°06' W 080°10'0 0.0
2017-Nov-15 06:57N 26°06' W 080°10'0 0.0
2017-Nov-15 06:27N 26°06' W 080°10'0 0.0
2017-Nov-15 05:57N 26°06' W 080°10'0 0.0
2017-Nov-15 05:30N 26°06' W 080°10'0 0.0
2017-Nov-15 05:00N 26°06' W 080°10'0 0.0
2017-Nov-15 04:27N 26°06' W 080°10'0 0.0
2017-Nov-15 03:57N 26°06' W 080°10'0 0.0
2017-Nov-15 03:30N 26°06' W 080°10'0 0.0
2017-Nov-15 03:00N 26°06' W 080°10'0 0.0
2017-Nov-15 02:30N 26°06' W 080°10'0 0.0
2017-Nov-15 02:00N 26°06' W 080°10'  

Dump ship's entire track history